createdAt,value
2023-05-23T00:01:17.142Z,12.20
2023-05-23T00:03:45.338Z,12.20
2023-05-23T00:06:14.719Z,12.20
2023-05-23T00:08:42.567Z,12.20
2023-05-23T00:11:13.383Z,12.30
2023-05-23T00:13:41.203Z,12.30
2023-05-23T00:16:10.548Z,12.30
2023-05-23T00:18:38.476Z,12.20
2023-05-23T00:21:06.711Z,12.20
2023-05-23T00:23:34.531Z,12.20
2023-05-23T00:26:02.345Z,12.20
2023-05-23T00:28:31.592Z,12.10
2023-05-23T00:30:59.413Z,12.10
2023-05-23T00:33:27.331Z,11.90
2023-05-23T00:35:55.143Z,12.00
2023-05-23T00:38:22.974Z,12.00
2023-05-23T00:40:50.814Z,12.10
2023-05-23T00:43:19.439Z,12.10
2023-05-23T00:45:49.140Z,12.20
2023-05-23T00:48:17.093Z,12.20
2023-05-23T00:50:45.178Z,12.30
2023-05-23T00:53:14.252Z,12.40
2023-05-23T00:55:42.417Z,12.50
2023-05-23T00:58:11.154Z,12.50
2023-05-23T01:00:39.708Z,12.50
2023-05-23T01:03:09.125Z,12.50
2023-05-23T01:05:37.096Z,12.50
2023-05-23T01:08:04.912Z,12.50
2023-05-23T01:10:33.149Z,12.60
2023-05-23T01:13:11.190Z,12.60
2023-05-23T01:15:43.640Z,12.60
2023-05-23T01:18:18.215Z,12.70
2023-05-23T01:20:52.052Z,12.70
2023-05-23T01:23:55.910Z,12.80
2023-05-23T01:26:35.015Z,12.80
2023-05-23T01:29:12.033Z,12.80
2023-05-23T01:31:44.611Z,12.90
2023-05-23T01:34:14.753Z,13.00
2023-05-23T01:36:44.373Z,13.00
2023-05-23T01:39:12.461Z,13.00
2023-05-23T01:41:41.018Z,13.10
2023-05-23T01:44:10.505Z,13.10
2023-05-23T01:46:40.199Z,13.10
2023-05-23T01:49:10.724Z,13.10
2023-05-23T01:51:39.267Z,13.20
2023-05-23T01:54:07.656Z,13.20
2023-05-23T01:56:35.962Z,13.20
2023-05-23T01:59:04.284Z,13.10
2023-05-23T02:01:35.129Z,13.10
2023-05-23T02:04:03.016Z,13.00
2023-05-23T02:06:31.745Z,12.90
2023-05-23T02:08:59.738Z,12.90
2023-05-23T02:11:27.880Z,12.90
2023-05-23T02:13:55.673Z,13.00
2023-05-23T02:16:26.163Z,13.10
2023-05-23T02:18:56.298Z,13.10
2023-05-23T02:21:24.278Z,13.10
2023-05-23T02:23:52.185Z,13.10
2023-05-23T02:26:20.150Z,13.10
2023-05-23T02:28:47.990Z,13.10
2023-05-23T02:31:17.324Z,13.10
2023-05-23T02:33:45.301Z,13.10
2023-05-23T02:36:14.511Z,13.10
2023-05-23T02:38:42.357Z,13.00
2023-05-23T02:41:10.165Z,13.00
2023-05-23T02:43:39.279Z,13.00
2023-05-23T02:46:07.176Z,13.00
2023-05-23T02:48:35.077Z,13.00
2023-05-23T02:51:03.065Z,13.10
2023-05-23T02:53:32.278Z,13.10
2023-05-23T02:56:00.180Z,13.10
2023-05-23T02:58:28.027Z,13.00
2023-05-23T03:00:55.872Z,13.00
2023-05-23T03:03:23.734Z,12.90
2023-05-23T03:05:51.768Z,13.00
2023-05-23T03:08:19.651Z,13.00
2023-05-23T03:10:48.967Z,13.10
2023-05-23T03:13:17.237Z,13.10
2023-05-23T03:15:46.332Z,13.20
2023-05-23T03:18:14.304Z,13.20
2023-05-23T03:20:42.388Z,13.30
2023-05-23T03:23:10.390Z,13.30
2023-05-23T03:25:38.699Z,13.30
2023-05-23T03:28:08.075Z,13.40
2023-05-23T03:30:36.170Z,13.40
2023-05-23T03:33:04.400Z,13.40
2023-05-23T03:35:32.440Z,13.40
2023-05-23T03:38:00.444Z,13.30
2023-05-23T03:40:28.408Z,13.30
2023-05-23T03:43:07.441Z,13.30
2023-05-23T03:45:36.251Z,13.30
2023-05-23T03:48:04.332Z,13.30
2023-05-23T03:50:32.337Z,13.30
2023-05-23T03:53:00.318Z,13.20
2023-05-23T03:55:28.332Z,13.30
2023-05-23T03:57:56.303Z,13.30
2023-05-23T04:00:26.425Z,13.40
2023-05-23T04:02:54.514Z,13.50
2023-05-23T04:05:22.797Z,13.60
2023-05-23T04:07:51.670Z,13.50
2023-05-23T04:10:19.775Z,13.50
2023-05-23T04:12:48.081Z,13.40
2023-05-23T04:15:18.094Z,13.40
2023-05-23T04:17:47.475Z,13.30
2023-05-23T04:20:15.542Z,13.40
2023-05-23T04:22:43.390Z,13.40
2023-05-23T04:25:11.646Z,13.50
2023-05-23T04:27:40.710Z,13.60
2023-05-23T04:30:10.305Z,13.70
2023-05-23T04:32:38.314Z,13.80
2023-05-23T04:35:08.753Z,13.90
2023-05-23T04:37:37.849Z,13.90
2023-05-23T04:40:07.177Z,13.90
2023-05-23T04:42:36.089Z,14.00
2023-05-23T04:45:04.029Z,13.90
2023-05-23T04:47:37.100Z,14.00
2023-05-23T04:50:07.302Z,14.10
2023-05-23T04:52:35.188Z,14.10
2023-05-23T04:55:03.654Z,14.20
2023-05-23T04:57:31.776Z,14.30
2023-05-23T04:59:59.593Z,14.30
2023-05-23T05:02:28.054Z,14.40
2023-05-23T05:04:55.913Z,14.50
2023-05-23T05:07:25.107Z,14.60
2023-05-23T05:09:52.933Z,14.80
2023-05-23T05:12:20.771Z,14.90
2023-05-23T05:14:48.694Z,14.90
2023-05-23T05:17:16.944Z,14.90
2023-05-23T05:19:44.929Z,15.00
2023-05-23T05:22:13.227Z,15.00
2023-05-23T05:24:42.401Z,15.00
2023-05-23T05:27:11.871Z,15.00
2023-05-23T05:29:39.774Z,14.90
2023-05-23T05:32:09.102Z,14.90
2023-05-23T05:34:37.955Z,14.80
2023-05-23T05:37:06.252Z,14.80
2023-05-23T05:39:34.139Z,14.70
2023-05-23T05:42:04.376Z,14.60
2023-05-23T05:44:32.315Z,14.50
2023-05-23T05:47:00.148Z,14.40
2023-05-23T05:49:28.260Z,14.40
2023-05-23T05:51:56.107Z,14.20
2023-05-23T05:54:23.957Z,14.10
2023-05-23T05:56:51.810Z,14.20
2023-05-23T05:59:20.971Z,14.20
2023-05-23T06:01:51.120Z,14.20
2023-05-23T06:04:19.242Z,14.30
2023-05-23T06:06:47.120Z,14.30
2023-05-23T06:09:14.991Z,14.30
2023-05-23T06:11:42.845Z,14.30
2023-05-23T06:14:10.792Z,14.30
2023-05-23T06:16:40.562Z,14.40
2023-05-23T06:19:09.265Z,14.50
2023-05-23T06:21:37.274Z,14.50
2023-05-23T06:24:05.346Z,14.60
2023-05-23T06:26:33.573Z,14.70
2023-05-23T06:29:01.418Z,14.80
2023-05-23T06:31:29.275Z,14.70
2023-05-23T06:33:58.458Z,14.70
2023-05-23T06:36:26.460Z,14.70
2023-05-23T06:38:54.293Z,14.70
2023-05-23T06:41:22.664Z,14.70
2023-05-23T06:43:50.581Z,14.60
2023-05-23T06:46:18.576Z,14.50
2023-05-23T06:48:46.585Z,14.40
2023-05-23T06:51:15.943Z,14.50
2023-05-23T06:53:43.835Z,14.40
2023-05-23T06:56:11.727Z,14.40
2023-05-23T06:58:39.583Z,14.30
2023-05-23T07:01:07.427Z,14.30
2023-05-23T07:03:35.301Z,14.20
2023-05-23T07:06:03.166Z,14.30
2023-05-23T07:08:32.380Z,14.20
2023-05-23T07:11:00.561Z,14.30
2023-05-23T07:13:28.435Z,14.40
2023-05-23T07:15:56.988Z,14.60
2023-05-23T07:18:24.880Z,14.70
2023-05-23T07:20:52.708Z,14.70
2023-05-23T07:23:20.763Z,14.70
2023-05-23T07:26:01.042Z,14.80
2023-05-23T07:28:30.180Z,15.00
2023-05-23T07:30:58.733Z,15.20
2023-05-23T07:33:26.775Z,15.30
2023-05-23T07:35:54.616Z,15.40
2023-05-23T07:38:22.462Z,15.50
2023-05-23T07:40:59.251Z,15.60
2023-05-23T07:43:35.027Z,15.30
2023-05-23T07:46:02.894Z,15.20
2023-05-23T07:48:32.091Z,15.10
2023-05-23T07:51:00.056Z,15.10
2023-05-23T07:53:27.896Z,14.90
2023-05-23T07:55:57.606Z,14.90
2023-05-23T07:58:25.447Z,15.00
2023-05-23T08:00:53.577Z,15.10
2023-05-23T08:03:21.467Z,15.20
2023-05-23T08:05:49.968Z,15.10
2023-05-23T08:08:18.018Z,15.00
2023-05-23T08:10:47.076Z,15.00
2023-05-23T08:13:16.444Z,15.10
2023-05-23T08:15:44.388Z,15.10
2023-05-23T08:18:12.972Z,14.90
2023-05-23T08:20:41.108Z,14.90
2023-05-23T08:23:09.171Z,14.90
2023-05-23T08:25:37.036Z,15.00
2023-05-23T08:28:04.939Z,15.10
2023-05-23T08:30:34.614Z,15.40
2023-05-23T08:33:04.881Z,15.80
2023-05-23T08:35:35.212Z,16.20
2023-05-23T08:38:03.475Z,16.60
2023-05-23T08:40:32.840Z,16.70
2023-05-23T08:43:00.893Z,16.40
2023-05-23T08:45:30.355Z,16.30
2023-05-23T08:48:02.263Z,16.20
2023-05-23T08:50:31.648Z,16.30
2023-05-23T08:53:00.407Z,16.40
2023-05-23T08:55:29.925Z,16.50
2023-05-23T08:58:00.264Z,16.50
2023-05-23T09:00:29.243Z,16.50
2023-05-23T09:02:58.772Z,16.50
2023-05-23T09:05:27.862Z,16.50
2023-05-23T09:07:56.782Z,16.40
2023-05-23T09:10:24.887Z,16.50
2023-05-23T09:12:52.791Z,16.30
2023-05-23T09:15:22.353Z,16.00
2023-05-23T09:17:50.486Z,15.70
2023-05-23T09:20:19.847Z,15.50
2023-05-23T09:22:48.913Z,15.60
2023-05-23T09:25:17.393Z,15.60
2023-05-23T09:27:48.182Z,15.70
2023-05-23T09:30:16.763Z,15.80
2023-05-23T09:32:57.806Z,16.00
2023-05-23T09:35:30.140Z,15.80
2023-05-23T09:37:59.262Z,15.60
2023-05-23T09:40:31.956Z,15.60
2023-05-23T09:43:04.080Z,15.40
2023-05-23T09:45:33.286Z,15.40
2023-05-23T09:48:01.688Z,15.40
2023-05-23T09:50:34.644Z,15.30
2023-05-23T09:53:02.554Z,15.20
2023-05-23T09:55:30.461Z,15.10
2023-05-23T09:58:00.794Z,15.30
2023-05-23T10:00:29.581Z,15.30
2023-05-23T10:03:11.489Z,15.40
2023-05-23T10:05:45.203Z,15.90
2023-05-23T10:08:17.145Z,16.60
2023-05-23T10:11:34.319Z,16.60
2023-05-23T10:14:04.478Z,16.80
2023-05-23T10:16:40.990Z,16.80
2023-05-23T10:19:21.732Z,17.00
2023-05-23T10:21:55.427Z,16.70
2023-05-23T10:24:25.515Z,16.70
2023-05-23T10:26:54.174Z,16.50
2023-05-23T10:29:22.821Z,16.90
2023-05-23T10:31:52.000Z,16.80
2023-05-23T10:34:28.905Z,16.50
2023-05-23T10:37:02.546Z,16.60
2023-05-23T10:39:47.822Z,16.80
2023-05-23T10:42:21.776Z,16.80
2023-05-23T10:44:49.738Z,16.50
2023-05-23T10:47:28.244Z,16.80
2023-05-23T10:49:56.946Z,17.20
2023-05-23T10:52:27.639Z,17.90
2023-05-23T10:54:56.891Z,17.80
2023-05-23T10:57:27.947Z,18.20
2023-05-23T10:59:56.165Z,18.20
2023-05-23T11:02:27.799Z,18.10
2023-05-23T11:05:20.087Z,17.90
2023-05-23T11:08:08.826Z,17.90
2023-05-23T11:10:59.731Z,17.60
2023-05-23T11:13:47.735Z,17.80
2023-05-23T11:16:29.081Z,17.80
2023-05-23T11:19:26.152Z,17.80
2023-05-23T11:21:56.128Z,17.50
2023-05-23T11:24:45.803Z,17.30
2023-05-23T11:27:13.964Z,17.30
2023-05-23T11:29:41.848Z,17.40
2023-05-23T11:32:17.267Z,17.70
2023-05-23T11:34:45.371Z,17.50
2023-05-23T11:37:13.775Z,17.40
2023-05-23T11:39:42.946Z,17.80
2023-05-23T11:42:10.836Z,17.80
2023-05-23T11:44:38.687Z,17.90
2023-05-23T11:47:08.411Z,17.90
2023-05-23T11:49:38.760Z,17.60
2023-05-23T11:52:07.569Z,18.10
2023-05-23T11:54:35.724Z,18.30
2023-05-23T11:57:05.749Z,18.30
2023-05-23T11:59:34.919Z,18.20
2023-05-23T12:02:03.601Z,18.30
2023-05-23T12:04:31.599Z,18.50
2023-05-23T12:06:59.526Z,18.60
2023-05-23T12:09:27.410Z,18.40
2023-05-23T12:11:55.317Z,18.40
2023-05-23T12:14:24.567Z,18.20
2023-05-23T12:16:54.893Z,18.40
2023-05-23T12:19:22.945Z,18.10
2023-05-23T12:21:51.236Z,18.00
2023-05-23T12:24:20.215Z,17.90
2023-05-23T12:26:52.510Z,17.60
2023-05-23T12:29:22.232Z,17.80
2023-05-23T12:31:52.550Z,18.00
2023-05-23T12:34:23.296Z,18.20
2023-05-23T12:36:57.242Z,18.20
2023-05-23T12:39:33.713Z,18.00
2023-05-23T12:42:09.434Z,18.20
2023-05-23T12:44:37.380Z,18.60
2023-05-23T12:47:07.055Z,18.00
2023-05-23T12:49:34.958Z,17.90
2023-05-23T12:52:02.823Z,17.80
2023-05-23T12:54:30.860Z,18.30
2023-05-23T12:56:58.917Z,18.20
2023-05-23T12:59:26.739Z,18.20
2023-05-23T13:01:55.030Z,18.40
2023-05-23T13:04:24.186Z,18.50
2023-05-23T13:06:52.850Z,18.60
2023-05-23T13:09:20.753Z,18.90
2023-05-23T13:11:48.597Z,19.00
2023-05-23T13:14:16.440Z,18.80
2023-05-23T13:16:45.611Z,18.70
2023-05-23T13:19:13.507Z,18.60
2023-05-23T13:21:42.830Z,18.50
2023-05-23T13:24:10.684Z,18.60
2023-05-23T13:26:38.599Z,18.70
2023-05-23T13:29:07.181Z,18.90
2023-05-23T13:31:35.145Z,18.70
2023-05-23T13:34:02.980Z,18.30
2023-05-23T13:36:31.689Z,18.40
2023-05-23T13:39:01.235Z,18.40
2023-05-23T13:41:29.179Z,18.90
2023-05-23T13:43:57.493Z,19.00
2023-05-23T13:46:25.397Z,18.70
2023-05-23T13:48:53.242Z,18.50
2023-05-23T13:51:21.084Z,18.40
2023-05-23T13:53:48.950Z,18.40
2023-05-23T13:56:18.123Z,18.40
2023-05-23T13:58:49.373Z,18.30
2023-05-23T14:01:18.027Z,18.50
2023-05-23T14:03:46.116Z,18.70
2023-05-23T14:06:13.955Z,19.00
2023-05-23T14:08:41.843Z,18.90
2023-05-23T14:11:09.679Z,18.70
2023-05-23T14:13:38.852Z,18.60
2023-05-23T14:16:07.057Z,18.60
2023-05-23T14:18:35.061Z,18.50
2023-05-23T14:21:02.970Z,18.40
2023-05-23T14:23:30.947Z,18.30
2023-05-23T14:25:58.755Z,18.30
2023-05-23T14:28:26.561Z,18.40
2023-05-23T14:30:56.512Z,18.40
2023-05-23T14:33:24.458Z,18.90
2023-05-23T14:35:52.744Z,18.60
2023-05-23T14:38:20.796Z,18.90
2023-05-23T14:40:48.880Z,18.70
2023-05-23T14:43:16.848Z,18.60
2023-05-23T14:45:44.927Z,18.30
2023-05-23T14:48:14.538Z,18.50
2023-05-23T14:50:42.537Z,18.50
2023-05-23T14:53:10.766Z,18.80
2023-05-23T14:55:38.779Z,18.80
2023-05-23T14:58:07.122Z,18.80
2023-05-23T15:00:34.937Z,18.80
2023-05-23T15:03:03.370Z,18.50
2023-05-23T15:05:32.685Z,18.30
2023-05-23T15:08:00.550Z,18.10
2023-05-23T15:10:28.400Z,18.10
2023-05-23T15:12:56.566Z,18.10
2023-05-23T15:15:24.441Z,18.30
2023-05-23T15:17:52.707Z,18.30
2023-05-23T15:20:20.540Z,18.20
2023-05-23T15:22:49.697Z,17.80
2023-05-23T15:25:20.379Z,17.90
2023-05-23T15:27:52.183Z,17.90
2023-05-23T15:30:20.091Z,17.70
2023-05-23T15:32:48.570Z,17.90
2023-05-23T15:35:18.279Z,17.90
2023-05-23T15:37:48.741Z,17.70
2023-05-23T15:40:16.629Z,17.50
2023-05-23T15:42:46.308Z,17.50
2023-05-23T15:45:14.500Z,17.70
2023-05-23T15:47:42.440Z,17.90
2023-05-23T15:50:12.920Z,17.50
2023-05-23T15:52:42.117Z,17.40
2023-05-23T15:55:11.567Z,17.20
2023-05-23T15:57:39.460Z,17.10
2023-05-23T16:00:08.778Z,17.00
2023-05-23T16:02:36.686Z,17.30
2023-05-23T16:05:04.679Z,17.20
2023-05-23T16:07:32.512Z,17.10
2023-05-23T16:10:00.496Z,17.20
2023-05-23T16:12:31.033Z,17.20
2023-05-23T16:14:59.026Z,17.20
2023-05-23T16:17:26.838Z,17.20
2023-05-23T16:19:54.631Z,17.50
2023-05-23T16:22:22.460Z,17.30
2023-05-23T16:24:50.344Z,17.20
2023-05-23T16:27:18.258Z,17.20
2023-05-23T16:29:47.433Z,17.10
2023-05-23T16:32:16.984Z,16.90
2023-05-23T16:34:48.741Z,16.90
2023-05-23T16:37:20.580Z,16.90
2023-05-23T16:39:48.521Z,17.00
2023-05-23T16:42:16.348Z,17.30
2023-05-23T16:44:44.220Z,17.10
2023-05-23T16:47:13.492Z,17.10
2023-05-23T16:49:41.305Z,17.00
2023-05-23T16:52:09.159Z,17.10
2023-05-23T16:54:37.041Z,17.20
2023-05-23T16:57:05.672Z,17.10
2023-05-23T16:59:33.834Z,17.20
2023-05-23T17:02:01.747Z,17.10
2023-05-23T17:04:30.896Z,17.00
2023-05-23T17:06:58.824Z,17.10
2023-05-23T17:09:26.667Z,17.10
2023-05-23T17:11:54.569Z,16.90
2023-05-23T17:14:22.468Z,16.70
2023-05-23T17:16:50.268Z,16.50
2023-05-23T17:19:18.150Z,16.50
2023-05-23T17:21:47.402Z,16.70
2023-05-23T17:24:15.202Z,16.70
2023-05-23T17:26:43.030Z,16.70
2023-05-23T17:29:11.019Z,16.80
2023-05-23T17:31:38.942Z,17.10
2023-05-23T17:34:06.849Z,17.00
2023-05-23T17:36:35.123Z,17.00
2023-05-23T17:39:04.416Z,16.80
2023-05-23T17:41:32.285Z,16.60
2023-05-23T17:44:00.111Z,16.70
2023-05-23T17:46:27.998Z,16.70
2023-05-23T17:48:55.847Z,16.60
2023-05-23T17:51:23.645Z,16.40
2023-05-23T17:53:53.638Z,16.30
2023-05-23T17:56:24.749Z,16.20
2023-05-23T17:58:52.932Z,16.00
2023-05-23T18:01:20.871Z,15.90
2023-05-23T18:03:49.166Z,15.90
2023-05-23T18:06:17.060Z,15.80
2023-05-23T18:08:44.870Z,15.80
2023-05-23T18:11:13.243Z,15.90
2023-05-23T18:13:42.480Z,16.00
2023-05-23T18:16:10.328Z,15.90
2023-05-23T18:18:38.180Z,15.80
2023-05-23T18:21:07.096Z,15.60
2023-05-23T18:23:34.956Z,15.50
2023-05-23T18:26:02.843Z,15.30
2023-05-23T18:28:30.707Z,15.20
2023-05-23T18:30:59.904Z,15.10
2023-05-23T18:33:28.438Z,14.90
2023-05-23T18:35:56.382Z,14.90
2023-05-23T18:38:24.293Z,14.80
2023-05-23T18:40:52.134Z,14.70
2023-05-23T18:43:20.128Z,14.60
2023-05-23T18:45:47.944Z,14.50
2023-05-23T18:48:17.139Z,14.40
2023-05-23T18:50:45.107Z,14.30
2023-05-23T18:53:13.035Z,14.30
2023-05-23T18:55:40.847Z,14.10
2023-05-23T18:58:08.653Z,14.10
2023-05-23T19:00:36.453Z,14.00
2023-05-23T19:03:04.732Z,14.00
2023-05-23T19:05:34.040Z,14.00
2023-05-23T19:08:03.265Z,13.90
2023-05-23T19:10:31.069Z,13.90
2023-05-23T19:12:58.892Z,13.90
2023-05-23T19:15:26.720Z,13.80
2023-05-23T19:17:54.593Z,13.80
2023-05-23T19:20:22.448Z,13.80
2023-05-23T19:22:52.756Z,13.70
2023-05-23T19:25:21.542Z,13.60
2023-05-23T19:27:49.385Z,13.60
2023-05-23T19:30:17.359Z,13.50
2023-05-23T19:32:45.230Z,13.50
2023-05-23T19:35:16.336Z,13.40
2023-05-23T19:37:44.773Z,13.30
2023-05-23T19:40:14.475Z,13.20
2023-05-23T19:42:42.496Z,13.20
2023-05-23T19:45:11.767Z,13.10
2023-05-23T19:47:39.731Z,13.00
2023-05-23T19:50:09.534Z,13.00
2023-05-23T19:52:37.498Z,12.90
2023-05-23T19:55:06.622Z,13.00
2023-05-23T19:57:36.291Z,13.00
2023-05-23T20:00:05.696Z,13.00
2023-05-23T20:02:33.918Z,13.10
2023-05-23T20:05:01.794Z,13.10
2023-05-23T20:07:29.958Z,13.10
2023-05-23T20:09:58.103Z,13.20
2023-05-23T20:12:26.679Z,13.20
2023-05-23T20:14:55.881Z,13.20
2023-05-23T20:17:23.772Z,13.10
2023-05-23T20:19:51.598Z,12.90
2023-05-23T20:22:19.423Z,12.90
2023-05-23T20:24:47.669Z,12.90
2023-05-23T20:27:15.800Z,12.90
2023-05-23T20:29:46.906Z,12.80
2023-05-23T20:32:16.525Z,12.80
2023-05-23T20:34:44.340Z,12.80
2023-05-23T20:37:13.926Z,12.80
2023-05-23T20:39:42.307Z,12.80
2023-05-23T20:42:11.343Z,12.80
2023-05-23T20:44:39.313Z,12.70
2023-05-23T20:47:07.477Z,12.70
2023-05-23T20:49:37.426Z,12.70
2023-05-23T20:52:06.445Z,12.70
2023-05-23T20:54:35.266Z,12.60
2023-05-23T20:57:03.808Z,12.60
2023-05-23T20:59:31.629Z,12.60
2023-05-23T21:01:59.501Z,12.70
2023-05-23T21:04:27.322Z,12.60
2023-05-23T21:06:56.434Z,12.60
2023-05-23T21:09:24.254Z,12.60
2023-05-23T21:11:52.068Z,12.50
2023-05-23T21:14:19.877Z,12.60
2023-05-23T21:16:47.751Z,12.60
2023-05-23T21:19:15.921Z,12.50
2023-05-23T21:21:43.784Z,12.50
2023-05-23T21:24:14.204Z,12.50
2023-05-23T21:26:42.050Z,12.50
2023-05-23T21:29:09.924Z,12.50
2023-05-23T21:31:41.845Z,12.40
2023-05-23T21:34:22.431Z,12.40
2023-05-23T21:36:52.239Z,12.50
2023-05-23T21:39:21.485Z,12.40
2023-05-23T21:41:49.333Z,12.40
2023-05-23T21:44:18.782Z,12.30
2023-05-23T21:46:47.214Z,12.30
2023-05-23T21:49:15.500Z,12.30
2023-05-23T21:51:44.075Z,12.30
2023-05-23T21:54:11.931Z,12.30
2023-05-23T21:56:41.777Z,12.30
2023-05-23T21:59:09.693Z,12.30
2023-05-23T22:01:37.575Z,12.30
2023-05-23T22:04:05.844Z,12.20
2023-05-23T22:06:34.224Z,12.20
2023-05-23T22:09:02.028Z,12.20
2023-05-23T22:11:33.827Z,12.20
2023-05-23T22:14:03.364Z,12.30
2023-05-23T22:16:32.988Z,12.20
2023-05-23T22:19:02.143Z,12.20
2023-05-23T22:21:30.162Z,12.20
2023-05-23T22:23:58.618Z,12.20
2023-05-23T22:26:26.976Z,12.20
2023-05-23T22:28:54.932Z,12.10
2023-05-23T22:31:24.448Z,12.20
2023-05-23T22:33:52.521Z,12.10
2023-05-23T22:36:20.431Z,12.10
2023-05-23T22:38:48.329Z,12.10
2023-05-23T22:41:16.529Z,12.10
2023-05-23T22:43:44.407Z,12.10
2023-05-23T22:46:12.279Z,12.10
2023-05-23T22:48:41.679Z,12.10
2023-05-23T22:51:12.450Z,12.00
2023-05-23T22:53:41.175Z,12.00
2023-05-23T22:56:09.148Z,12.00
2023-05-23T22:58:36.960Z,12.00
2023-05-23T23:01:04.984Z,12.00
2023-05-23T23:03:33.001Z,12.00
2023-05-23T23:06:06.235Z,11.90
2023-05-23T23:08:34.321Z,12.00
2023-05-23T23:11:02.299Z,11.90
2023-05-23T23:13:30.219Z,11.90
2023-05-23T23:15:59.071Z,12.00
2023-05-23T23:18:27.277Z,12.00
2023-05-23T23:20:55.218Z,12.00
2023-05-23T23:23:24.427Z,12.00
2023-05-23T23:25:52.431Z,11.90
2023-05-23T23:28:20.801Z,11.80
2023-05-23T23:30:48.946Z,11.70
2023-05-23T23:33:16.848Z,11.70
2023-05-23T23:35:46.328Z,11.70
2023-05-23T23:38:14.261Z,11.70
2023-05-23T23:40:45.221Z,11.70
2023-05-23T23:43:13.096Z,11.80
2023-05-23T23:45:41.217Z,11.80
2023-05-23T23:48:09.142Z,11.80
2023-05-23T23:50:37.072Z,11.80
2023-05-23T23:53:04.911Z,11.80
2023-05-23T23:55:32.767Z,11.80
2023-05-23T23:58:02.011Z,11.70
